Terminal Aerodrome Forecast
Issued by NWS Portland, OR

Home | Current Version | Previous Version | Text Only | Print | Product List | Glossary On
Versions: 1 2 3 4 5 6 7 8 9 10 11 12 13 14 15 16 17 18 19 20 21 22 23 24 25 26 27 28 29 30 31 32 33 34 35 36 37 38 39 40 41 42 43 44 45 46 47 48 49 50
000
FTUS46 KPQR 170520
TAFSLE
TAF
KSLE 170520Z 1706/1806 28009KT P6SM BKN060
     FM170800 22004KT P6SM BKN025
     FM171200 18008KT P6SM OVC025
     FM171800 18011KT P6SM VCSH SCT025 OVC050
     FM172100 22010KT P6SM VCSH SCT025 OVC050=

USA.gov is the U.S. government's official web portal to all federal, state and local government web resources and services.